ADDS METAR Data INFO
IDs: Format: Raw Decoded Include TAF

Data at: 0344 UTC 17 Oct 2017

KPNA 170314Z AUTO 00000KT 10SM CLR 03/M10 A3039 RMK AO2
KPNA 170250Z AUTO 04003KT 10SM CLR 00/M08 A3039 RMK AO2
KPNA 170235Z AUTO 31004KT 10SM CLR 01/M09 A3038 RMK AO2
KPNA 170215Z AUTO 30009KT 10SM CLR 01/M08 A3039 RMK AO2
KPNA 170155Z AUTO 31006KT 10SM CLR 02/M08 A3038 RMK AO2
KPNA 170130Z AUTO 32004KT 10SM CLR 03/M09 A3038 RMK AO2
KPNA 170115Z AUTO 31005KT 10SM CLR 03/M08 A3037 RMK AO2
KPNA 170055Z AUTO 30007KT 10SM CLR 06/M09 A3037 RMK AO2
KPNA 170035Z AUTO 31009KT 10SM CLR 08/M09 A3037 RMK AO2
KPNA 170015Z AUTO 32005KT 10SM CLR 12/M09 A3036 RMK AO2
KPNA 162355Z AUTO 30006KT 10SM CLR 14/M11 A3036 RMK AO2
KPNA 162335Z AUTO 31009KT 10SM CLR 15/M11 A3036 RMK AO2
KPNA 162315Z AUTO 29010KT 10SM CLR 15/M12 A3036 RMK AO2
KPNA 162255Z AUTO 31008KT 10SM CLR 16/M11 A3036 RMK AO2
KPNA 162235Z AUTO 29010G17KT 10SM CLR 16/M12 A3036 RMK AO2
KPNA 162215Z AUTO 30013G19KT 10SM CLR 16/M12 A3036 RMK AO2
KPNA 162155Z AUTO 30009KT 10SM CLR 16/M12 A3036 RMK AO2
KPNA 162135Z AUTO 28008KT 10SM CLR 16/M12 A3036 RMK AO2
KPNA 162115Z AUTO 30008KT 10SM CLR 16/M12 A3037 RMK AO2
KPNA 162055Z AUTO 00000KT 10SM CLR 16/M12 A3037 RMK AO2
KPNA 162035Z AUTO 30008KT 10SM CLR 16/M12 A3037 RMK AO2
KPNA 162015Z AUTO 33005KT 10SM CLR 15/M12 A3038 RMK AO2
KPNA 161955Z AUTO 29003KT 10SM CLR 15/M12 A3039 RMK AO2
KPNA 161935Z AUTO 00000KT 10SM CLR 15/M12 A3039 RMK AO2
KPNA 161915Z AUTO 31004KT 10SM CLR 14/M13 A3040 RMK AO2
KPNA 161855Z AUTO 31004KT 10SM CLR 14/M13 A3041 RMK AO2
KPNA 161835Z AUTO 00000KT 10SM CLR 13/M15 A3042 RMK AO2
KPNA 161815Z AUTO 33004KT 10SM CLR 13/M14 A3042 RMK AO2
KPNA 161755Z AUTO 29005KT 10SM CLR 12/M12 A3042 RMK AO2
KPNA 161735Z AUTO 32003KT 10SM CLR 11/M09 A3043 RMK AO2
KPNA 161715Z AUTO 00000KT 10SM CLR 10/M06 A3043 RMK AO2
KPNA 161655Z AUTO 00000KT 10SM CLR 08/M05 A3044 RMK AO2
KPNA 161635Z AUTO 32003KT 10SM CLR 06/M06 A3044 RMK AO2
KPNA 161615Z AUTO 29004KT 10SM CLR 03/M05 A3045 RMK AO2
KPNA 161555Z AUTO 31005KT 10SM CLR 02/M05 A3045 RMK AO2
KPNA 161535Z AUTO 32005KT 10SM CLR 00/M05 A3045 RMK AO2
KPNA 161515Z AUTO 30006KT 10SM CLR M01/M05 A3044 RMK AO2
KPNA 161455Z AUTO 30007KT 10SM CLR M03/M06 A3045 RMK AO2
KPNA 161435Z AUTO 30006KT 10SM CLR M05/M07 A3045 RMK AO2
KPNA 161415Z AUTO 29005KT 10SM CLR M08/M08 A3044 RMK AO2
KPNA 161355Z AUTO 30005KT 10SM CLR M08/M10 A3043 RMK AO2
KPNA 161335Z AUTO 30006KT 10SM CLR M07/M08 A3043 RMK AO2
KPNA 161315Z AUTO 30006KT 10SM CLR M07/M08 A3043 RMK AO2
KPNA 161255Z AUTO 29005KT 10SM CLR M07/M08 A3043 RMK AO2
KPNA 161235Z AUTO 32006KT 10SM CLR M07/M08 A3043 RMK AO2
KPNA 161215Z AUTO 28006KT 10SM CLR M07/M08 A3043 RMK AO2
KPNA 161155Z AUTO 31005KT 10SM CLR M07/M08 A3043 RMK AO2
KPNA 161135Z AUTO 29005KT 10SM CLR M07/M08 A3043 RMK AO2
KPNA 161115Z AUTO 31006KT 10SM CLR M07/M07 A3043 RMK AO2
KPNA 161055Z AUTO 29007KT 10SM CLR M07/M08 A3043 RMK AO2
KPNA 161035Z AUTO 31005KT 10SM CLR M07/M08 A3044 RMK AO2
KPNA 161015Z AUTO 30006KT 10SM CLR M07/M07 A3044 RMK AO2
KPNA 160955Z AUTO 30006KT 10SM CLR M07/M07 A3044 RMK AO2
KPNA 160935Z AUTO 29007KT 10SM CLR M06/M07 A3044 RMK AO2
KPNA 160915Z AUTO 29006KT 10SM CLR M06/M07 A3045 RMK AO2
KPNA 160855Z AUTO 29006KT 10SM CLR M06/M07 A3045 RMK AO2
KPNA 160835Z AUTO 29006KT 10SM CLR M06/M07 A3045 RMK AO2
KPNA 160815Z AUTO 29006KT 10SM CLR M06/M07 A3045 RMK AO2
KPNA 160755Z AUTO 30006KT 10SM CLR M06/M07 A3045 RMK AO2
KPNA 160735Z AUTO 30006KT 10SM CLR M06/M07 A3045 RMK AO2
KPNA 160715Z AUTO 30007KT 10SM CLR M05/M06 A3045 RMK AO2
KPNA 160655Z AUTO 30006KT 10SM CLR M05/M06 A3045 RMK AO2
KPNA 160635Z AUTO 31006KT 10SM CLR M03/M06 A3046 RMK AO2
KPNA 160615Z AUTO 31005KT 10SM CLR M04/M06 A3046 RMK AO2
KPNA 160555Z AUTO 30005KT 10SM CLR M04/M06 A3046 RMK AO2
KPNA 160535Z AUTO 29006KT 10SM CLR M04/M06 A3046 RMK AO2
KPNA 160515Z AUTO 31005KT 10SM CLR M04/M06 A3047 RMK AO2
KPNA 160455Z AUTO 30005KT 10SM CLR M03/M06 A3047 RMK AO2
KPNA 160435Z AUTO 32005KT 10SM CLR M03/M05 A3047 RMK AO2
KPNA 160415Z AUTO 31004KT 10SM CLR M02/M05 A3048 RMK AO2
KPNA 160355Z AUTO 29005KT 10SM CLR M02/M05 A3047 RMK AO2
KPNA 160335Z AUTO 28004KT 10SM CLR M01/M05 A3048 RMK AO2
KPNA 160315Z AUTO 26005KT 10SM CLR M01/M05 A3048 RMK AO2
KPNA 160255Z AUTO 00000KT 10SM CLR 00/M05 A3047 RMK AO2
KPNA 160235Z AUTO 36003KT 10SM CLR 02/M05 A3047 RMK AO2
KPNA 160215Z AUTO 30003KT 10SM CLR 01/M05 A3047 RMK AO2
KPNA 160155Z AUTO 27004KT 10SM CLR 02/M05 A3046 RMK AO2
KPNA 160135Z AUTO 32005KT 10SM CLR 02/M05 A3046 RMK AO2
KPNA 160115Z AUTO 00000KT 10SM CLR 05/M05 A3045 RMK AO2
KPNA 160050Z AUTO 00000KT 10SM CLR 07/M06 A3046 RMK AO2
KPNA 160035Z AUTO 00000KT 10SM CLR 08/M06 A3045 RMK AO2
KPNA 160015Z AUTO 20003KT 10SM CLR 10/M06 A3045 RMK AO2
KPNA 152355Z AUTO 23003KT 10SM CLR 12/M06 A3045 RMK AO2
KPNA 152335Z AUTO 23006KT 10SM CLR 12/M06 A3045 RMK AO2
KPNA 152315Z AUTO 28003KT 10SM CLR 12/M06 A3045 RMK AO2
KPNA 152255Z AUTO 27003KT 10SM CLR 12/M06 A3046 RMK AO2
KPNA 152235Z AUTO 00000KT 10SM CLR 13/M06 A3046 RMK AO2
KPNA 152215Z AUTO 27004KT 10SM CLR 12/M06 A3046 RMK AO2
KPNA 152155Z AUTO 26004KT 10SM CLR 12/M06 A3046 RMK AO2
KPNA 152135Z AUTO 00000KT 10SM CLR 12/M05 A3047 RMK AO2
KPNA 152115Z AUTO 24006KT 10SM CLR 12/M05 A3047 RMK AO2
KPNA 152055Z AUTO 26003KT 10SM CLR 12/M05 A3047 RMK AO2
KPNA 152035Z AUTO 32003KT 10SM CLR 12/M05 A3047 RMK AO2
KPNA 152015Z AUTO 30005KT 10SM CLR 11/M06 A3048 RMK AO2
KPNA 151955Z AUTO 26005KT 10SM CLR 11/M06 A3049 RMK AO2
KPNA 151935Z AUTO 31003KT 10SM CLR 10/M06 A3050 RMK AO2
KPNA 151915Z AUTO 31006KT 10SM CLR 10/M06 A3051 RMK AO2
KPNA 151855Z AUTO 00000KT 10SM CLR 09/M07 A3052 RMK AO2
KPNA 151835Z AUTO 00000KT 10SM CLR 08/M08 A3052 RMK AO2
KPNA 151815Z AUTO 32003KT 10SM CLR 07/M08 A3053 RMK AO2
KPNA 151755Z AUTO 00000KT 10SM CLR 06/M09 A3054 RMK AO2
KPNA 151735Z AUTO 31003KT 10SM CLR 05/M10 A3055 RMK AO2
KPNA 151715Z AUTO 35003KT 10SM CLR 03/M10 A3055 RMK AO2
KPNA 151655Z AUTO 00000KT 10SM CLR 02/M10 A3056 RMK AO2
KPNA 151635Z AUTO 00000KT 10SM CLR 01/M10 A3056 RMK AO2
KPNA 151615Z AUTO 00000KT 10SM CLR 00/M09 A3056 RMK AO2
KPNA 151555Z AUTO 00000KT 10SM CLR 00/M09 A3057 RMK AO2